Time;durP1;ratioP1;P1;durP2;ratioP2;P2;SDS_P1;SDS_P2;PMS_P1;PMS_P2;Temp;Humidity;BMP_temperature;BMP_pressure;BME280_temperature;BME280_humidity;BME280_pressure;Samples;Min_cycle;Max_cycle;Signal;HPM_P1;HPM_P2
2023/09/30 00:01:59;;;;;;;2.67;1.55;;;;;;;;;;5038393;28;20202;-87
2023/09/30 00:04:28;;;;;;;4.53;1.88;;;;;;;;;;5038720;28;20049;-86
2023/09/30 00:06:55;;;;;;;3.72;1.50;;;;;;;;;;5038496;28;20041;-85
2023/09/30 00:09:22;;;;;;;2.85;1.52;;;;;;;;;;5039157;28;20046;-87
2023/09/30 00:11:50;;;;;;;4.93;1.50;;;;;;;;;;5036612;28;20077;-87
2023/09/30 00:14:17;;;;;;;3.45;1.77;;;;;;;;;;5035562;28;20495;-86
2023/09/30 00:16:44;;;;;;;2.05;1.30;;;;;;;;;;5035639;28;20096;-87
2023/09/30 00:19:13;;;;;;;3.42;1.40;;;;;;;;;;5035281;28;20171;-87
2023/09/30 00:21:40;;;;;;;2.70;1.50;;;;;;;;;;5035294;28;20045;-87
2023/09/30 00:24:08;;;;;;;3.05;1.35;;;;;;;;;;5033975;28;20049;-87
2023/09/30 00:26:35;;;;;;;3.13;1.30;;;;;;;;;;5038978;28;20106;-87
2023/09/30 00:29:05;;;;;;;2.15;1.23;;;;;;;;;;5041162;28;20060;-86
2023/09/30 00:31:33;;;;;;;3.58;1.45;;;;;;;;;;5040240;28;20049;-85
2023/09/30 00:34:00;;;;;;;3.80;1.55;;;;;;;;;;5036905;28;20049;-86
2023/09/30 00:36:27;;;;;;;5.25;1.38;;;;;;;;;;5037300;28;20056;-86
2023/09/30 00:38:55;;;;;;;3.20;1.33;;;;;;;;;;5035996;28;20419;-85
2023/09/30 00:41:22;;;;;;;5.13;1.60;;;;;;;;;;5037191;28;20049;-85
2023/09/30 00:43:50;;;;;;;4.45;1.67;;;;;;;;;;5037776;28;20049;-86
2023/09/30 00:46:17;;;;;;;2.67;1.35;;;;;;;;;;5040392;28;20533;-85
2023/09/30 00:48:45;;;;;;;2.95;1.60;;;;;;;;;;5038626;28;20095;-85
2023/09/30 00:51:12;;;;;;;3.15;1.73;;;;;;;;;;5032242;28;20053;-86
2023/09/30 00:53:40;;;;;;;4.53;1.50;;;;;;;;;;5035036;28;20056;-86
2023/09/30 00:56:07;;;;;;;6.10;1.70;;;;;;;;;;5039623;28;20065;-85
2023/09/30 00:58:34;;;;;;;2.22;1.77;;;;;;;;;;5039814;28;20454;-86
2023/09/30 01:01:02;;;;;;;2.33;1.55;;;;;;;;;;5039182;28;20450;-86
2023/09/30 01:03:29;;;;;;;3.95;1.83;;;;;;;;;;5041678;28;20410;-86
2023/09/30 01:05:57;;;;;;;4.72;1.75;;;;;;;;;;5039900;28;20045;-86
2023/09/30 01:08:25;;;;;;;3.13;1.58;;;;;;;;;;5040827;28;20050;-85
2023/09/30 01:10:53;;;;;;;3.95;1.73;;;;;;;;;;5040440;28;20073;-86
2023/09/30 01:13:20;;;;;;;3.67;1.80;;;;;;;;;;5040301;28;20512;-85
2023/09/30 01:15:47;;;;;;;2.50;1.63;;;;;;;;;;5042474;28;20075;-86
2023/09/30 01:18:14;;;;;;;6.43;1.45;;;;;;;;;;5037807;28;20470;-86
2023/09/30 01:20:42;;;;;;;3.95;1.70;;;;;;;;;;5038838;28;20041;-85
2023/09/30 01:23:12;;;;;;;4.15;1.67;;;;;;;;;;5040387;28;20045;-86
2023/09/30 01:25:39;;;;;;;4.35;1.83;;;;;;;;;;5039107;28;20080;-85
2023/09/30 01:28:10;;;;;;;4.88;1.80;;;;;;;;;;5039564;28;20050;-85
2023/09/30 01:30:37;;;;;;;4.78;2.05;;;;;;;;;;5038743;28;20056;-86
2023/09/30 01:33:07;;;;;;;5.63;2.08;;;;;;;;;;5040028;28;20049;-85
2023/09/30 01:35:35;;;;;;;7.03;2.17;;;;;;;;;;5039773;28;20051;-85
2023/09/30 01:38:02;;;;;;;3.70;1.85;;;;;;;;;;5039316;28;20084;-85
2023/09/30 01:40:29;;;;;;;6.00;1.77;;;;;;;;;;5040753;28;20498;-85
2023/09/30 01:42:57;;;;;;;3.70;1.90;;;;;;;;;;5040542;28;20045;-85
2023/09/30 01:45:24;;;;;;;5.70;1.63;;;;;;;;;;5040310;28;20107;-85
2023/09/30 01:47:52;;;;;;;7.13;2.13;;;;;;;;;;5040466;28;20128;-85
2023/09/30 01:50:19;;;;;;;5.47;2.55;;;;;;;;;;5041371;28;20072;-86
2023/09/30 01:52:47;;;;;;;6.47;1.90;;;;;;;;;;5042818;28;20088;-86
2023/09/30 01:55:15;;;;;;;5.80;2.22;;;;;;;;;;5033707;28;20057;-85
2023/09/30 01:57:42;;;;;;;5.82;2.15;;;;;;;;;;5041536;28;20049;-85
2023/09/30 02:00:11;;;;;;;5.90;2.05;;;;;;;;;;5042592;28;20467;-86
2023/09/30 02:02:38;;;;;;;3.40;1.95;;;;;;;;;;5039118;28;20049;-87
2023/09/30 02:05:08;;;;;;;7.25;2.05;;;;;;;;;;5039233;28;20384;-86
2023/09/30 02:07:35;;;;;;;6.53;2.10;;;;;;;;;;5039326;28;20045;-86
2023/09/30 02:10:03;;;;;;;6.15;1.67;;;;;;;;;;5040907;28;20450;-87
2023/09/30 02:12:30;;;;;;;4.13;1.60;;;;;;;;;;5041554;28;20041;-86
2023/09/30 02:14:59;;;;;;;4.72;1.77;;;;;;;;;;5037284;28;20041;-86
2023/09/30 02:17:26;;;;;;;4.63;1.63;;;;;;;;;;5038258;28;20045;-86
2023/09/30 02:19:54;;;;;;;8.18;2.00;;;;;;;;;;5037410;28;20049;-87
2023/09/30 02:22:23;;;;;;;7.63;1.80;;;;;;;;;;5036485;28;20048;-87
2023/09/30 02:24:50;;;;;;;6.38;2.03;;;;;;;;;;5043811;28;20049;-86
2023/09/30 02:27:17;;;;;;;4.13;1.83;;;;;;;;;;5054276;28;20054;-86
2023/09/30 02:29:45;;;;;;;7.47;2.10;;;;;;;;;;5040255;28;20115;-86
2023/09/30 02:32:13;;;;;;;6.47;1.98;;;;;;;;;;5025463;28;20041;-87
2023/09/30 02:34:42;;;;;;;5.63;2.20;;;;;;;;;;5037989;28;20442;-87
2023/09/30 02:37:10;;;;;;;5.82;2.22;;;;;;;;;;5034037;28;20053;-86
2023/09/30 02:39:37;;;;;;;7.22;2.10;;;;;;;;;;5034226;28;20041;-87
2023/09/30 02:42:05;;;;;;;4.80;2.30;;;;;;;;;;5035288;28;20041;-86
2023/09/30 02:44:32;;;;;;;5.70;2.05;;;;;;;;;;5036019;28;20499;-83
2023/09/30 02:46:59;;;;;;;6.10;1.60;;;;;;;;;;5034931;28;20045;-86
2023/09/30 02:49:27;;;;;;;3.30;1.58;;;;;;;;;;5035176;28;20049;-86
2023/09/30 02:51:54;;;;;;;3.63;1.55;;;;;;;;;;5033524;28;20049;-86
2023/09/30 02:54:21;;;;;;;6.72;1.60;;;;;;;;;;5033574;28;20073;-86
2023/09/30 02:56:49;;;;;;;6.90;1.75;;;;;;;;;;5034653;28;20057;-86
2023/09/30 02:59:17;;;;;;;7.25;1.60;;;;;;;;;;5036187;28;20049;-86
2023/09/30 03:01:44;;;;;;;5.55;1.73;;;;;;;;;;5036908;28;20057;-87
2023/09/30 03:04:12;;;;;;;5.43;1.70;;;;;;;;;;5036102;28;20041;-87
2023/09/30 03:06:39;;;;;;;5.75;1.50;;;;;;;;;;5039035;28;20045;-86
2023/09/30 03:09:09;;;;;;;4.10;1.35;;;;;;;;;;5034853;28;20068;-87
2023/09/30 03:11:36;;;;;;;4.38;1.85;;;;;;;;;;5032875;28;20049;-86
2023/09/30 03:14:04;;;;;;;6.65;2.08;;;;;;;;;;5032376;28;20412;-86
2023/09/30 03:16:32;;;;;;;6.93;1.60;;;;;;;;;;5038342;28;20050;-85
2023/09/30 03:18:59;;;;;;;5.70;2.15;;;;;;;;;;5034636;28;20057;-86
2023/09/30 03:21:26;;;;;;;5.50;2.05;;;;;;;;;;5032811;28;20124;-87
2023/09/30 03:23:54;;;;;;;3.33;1.50;;;;;;;;;;5031175;28;20049;-87
2023/09/30 03:26:21;;;;;;;5.78;1.92;;;;;;;;;;5035631;28;20053;-87
2023/09/30 03:28:49;;;;;;;5.95;1.75;;;;;;;;;;5035512;28;20049;-86
2023/09/30 03:31:20;;;;;;;4.05;1.70;;;;;;;;;;5032389;28;20052;-86
2023/09/30 03:33:47;;;;;;;7.38;1.65;;;;;;;;;;5032133;28;20060;-85
2023/09/30 03:36:15;;;;;;;9.07;2.10;;;;;;;;;;5034895;28;20049;-86
2023/09/30 03:38:42;;;;;;;5.93;1.90;;;;;;;;;;5032328;28;20103;-86
2023/09/30 03:41:12;;;;;;;6.60;2.15;;;;;;;;;;5035994;28;20054;-87
2023/09/30 03:43:41;;;;;;;5.43;1.60;;;;;;;;;;5033427;28;20045;-87
2023/09/30 03:46:09;;;;;;;5.00;1.80;;;;;;;;;;5030954;28;20054;-86
2023/09/30 03:48:39;;;;;;;3.50;1.48;;;;;;;;;;5038034;28;20060;-85
2023/09/30 03:51:13;;;;;;;2.75;1.35;;;;;;;;;;5034166;28;20064;-86
2023/09/30 03:53:42;;;;;;;3.90;1.52;;;;;;;;;;5032922;28;20054;-86
2023/09/30 03:56:13;;;;;;;4.82;1.75;;;;;;;;;;5033912;28;20107;-86
2023/09/30 03:58:41;;;;;;;5.82;1.90;;;;;;;;;;5033240;28;20051;-86
2023/09/30 04:01:13;;;;;;;4.18;1.92;;;;;;;;;;5037229;28;20081;-86
2023/09/30 04:03:43;;;;;;;6.18;1.80;;;;;;;;;;5039049;28;20041;-87
2023/09/30 04:06:10;;;;;;;4.65;1.60;;;;;;;;;;5031775;28;20469;-86
2023/09/30 04:08:38;;;;;;;5.18;1.70;;;;;;;;;;5032270;28;20446;-86
2023/09/30 04:11:05;;;;;;;7.03;2.47;;;;;;;;;;5035030;28;20049;-86
2023/09/30 04:13:33;;;;;;;6.50;1.90;;;;;;;;;;5038100;28;20522;-86
2023/09/30 04:16:00;;;;;;;4.57;1.95;;;;;;;;;;5034703;28;20057;-86
2023/09/30 04:18:28;;;;;;;5.95;1.90;;;;;;;;;;5033502;28;20104;-85
2023/09/30 04:20:55;;;;;;;3.58;1.42;;;;;;;;;;5036008;28;20049;-86
2023/09/30 04:23:22;;;;;;;3.92;1.88;;;;;;;;;;5032874;28;20049;-87
2023/09/30 04:25:50;;;;;;;6.30;1.70;;;;;;;;;;5031908;28;20049;-86
2023/09/30 04:28:20;;;;;;;3.58;1.75;;;;;;;;;;5031909;28;20046;-87
2023/09/30 04:30:49;;;;;;;3.70;1.40;;;;;;;;;;5032336;28;20049;-87
2023/09/30 04:33:20;;;;;;;5.05;1.70;;;;;;;;;;5033797;28;20064;-87
2023/09/30 04:35:47;;;;;;;5.38;1.42;;;;;;;;;;5031415;28;20081;-86
2023/09/30 04:38:14;;;;;;;4.53;1.90;;;;;;;;;;5041736;28;20065;-86
2023/09/30 04:40:44;;;;;;;4.50;1.67;;;;;;;;;;5041212;28;20068;-86
2023/09/30 04:43:11;;;;;;;5.30;1.98;;;;;;;;;;5031625;28;20477;-86
2023/09/30 04:45:39;;;;;;;4.53;1.88;;;;;;;;;;5031393;28;20050;-87
2023/09/30 04:48:07;;;;;;;4.63;1.75;;;;;;;;;;5032727;28;20087;-87
2023/09/30 04:50:34;;;;;;;3.45;2.08;;;;;;;;;;5032404;28;20566;-88
2023/09/30 04:53:02;;;;;;;6.05;1.80;;;;;;;;;;5033263;28;20099;-87
2023/09/30 04:55:29;;;;;;;6.57;2.03;;;;;;;;;;5032981;28;20581;-87
2023/09/30 04:57:56;;;;;;;5.63;1.52;;;;;;;;;;5040293;28;20409;-87
2023/09/30 05:00:28;;;;;;;4.57;2.10;;;;;;;;;;5036904;28;20045;-86
2023/09/30 05:02:56;;;;;;;7.85;1.60;;;;;;;;;;5037913;28;20419;-87
2023/09/30 05:05:23;;;;;;;5.70;1.77;;;;;;;;;;5040158;28;20084;-85
2023/09/30 05:07:50;;;;;;;4.15;1.48;;;;;;;;;;5037689;28;20056;-87
2023/09/30 05:10:19;;;;;;;4.32;1.52;;;;;;;;;;5043477;28;20045;-87
2023/09/30 05:12:46;;;;;;;4.43;1.67;;;;;;;;;;5036902;28;20571;-87
2023/09/30 05:15:15;;;;;;;4.80;1.95;;;;;;;;;;5037092;28;20060;-87
2023/09/30 05:17:44;;;;;;;6.47;2.22;;;;;;;;;;5036554;28;20060;-87
2023/09/30 05:20:12;;;;;;;5.20;1.90;;;;;;;;;;5037476;28;20057;-87
2023/09/30 05:22:45;;;;;;;3.03;1.50;;;;;;;;;;5040350;28;20053;-87
2023/09/30 05:25:15;;;;;;;4.03;1.60;;;;;;;;;;5048311;28;20046;-87
2023/09/30 05:27:44;;;;;;;3.75;1.92;;;;;;;;;;5046332;28;20045;-87
2023/09/30 05:30:11;;;;;;;6.03;2.08;;;;;;;;;;5035370;28;20384;-87
2023/09/30 05:32:39;;;;;;;8.45;2.28;;;;;;;;;;5035924;28;20088;-87
2023/09/30 05:35:13;;;;;;;4.80;2.28;;;;;;;;;;5035752;28;20050;-86
2023/09/30 05:37:47;;;;;;;5.32;2.63;;;;;;;;;;5037342;28;20053;-86
2023/09/30 05:40:24;;;;;;;5.47;2.05;;;;;;;;;;5027836;28;20083;-87
2023/09/30 05:42:53;;;;;;;3.55;1.65;;;;;;;;;;5037066;28;20071;-87
2023/09/30 05:45:26;;;;;;;8.63;2.38;;;;;;;;;;5035616;28;20041;-87
2023/09/30 05:47:56;;;;;;;5.35;2.10;;;;;;;;;;5034435;28;20132;-87
2023/09/30 05:50:24;;;;;;;4.60;3.22;;;;;;;;;;5030592;28;20056;-87
2023/09/30 05:52:56;;;;;;;6.90;2.65;;;;;;;;;;5035831;28;20053;-87
2023/09/30 05:55:25;;;;;;;5.47;2.55;;;;;;;;;;5036036;28;20081;-87
2023/09/30 05:57:53;;;;;;;7.97;2.38;;;;;;;;;;5037073;28;20049;-87
2023/09/30 06:00:35;;;;;;;5.32;2.10;;;;;;;;;;5036522;28;20087;-87
2023/09/30 06:03:06;;;;;;;4.63;2.00;;;;;;;;;;5035824;28;20096;-87
2023/09/30 06:05:33;;;;;;;4.35;1.90;;;;;;;;;;5037246;28;20114;-87
2023/09/30 06:08:08;;;;;;;5.05;2.13;;;;;;;;;;5036747;28;20049;-87
2023/09/30 06:10:37;;;;;;;6.07;2.05;;;;;;;;;;5037778;28;20053;-87
2023/09/30 06:13:05;;;;;;;3.95;2.10;;;;;;;;;;5037563;28;20123;-87
2023/09/30 06:15:32;;;;;;;5.40;2.42;;;;;;;;;;5031721;28;20046;-86
2023/09/30 06:18:00;;;;;;;9.95;2.40;;;;;;;;;;5048768;28;20053;-86
2023/09/30 06:20:30;;;;;;;11.80;2.85;;;;;;;;;;5035198;28;20053;-87
2023/09/30 06:22:58;;;;;;;5.18;2.50;;;;;;;;;;5033786;28;20081;-86
2023/09/30 06:25:25;;;;;;;10.95;3.13;;;;;;;;;;5033694;28;20045;-87
2023/09/30 06:27:53;;;;;;;37.00;6.03;;;;;;;;;;5034224;28;20050;-87
2023/09/30 06:30:20;;;;;;;15.98;3.38;;;;;;;;;;5030890;28;20049;-87
2023/09/30 06:32:48;;;;;;;4.22;2.03;;;;;;;;;;5043720;28;20046;-87
2023/09/30 06:35:16;;;;;;;5.07;1.92;;;;;;;;;;5033690;28;20529;-86
2023/09/30 06:37:45;;;;;;;9.52;2.10;;;;;;;;;;5033898;28;20046;-87
2023/09/30 06:40:13;;;;;;;4.00;1.95;;;;;;;;;;5025802;28;20088;-87
2023/09/30 06:42:40;;;;;;;9.23;2.72;;;;;;;;;;5033877;28;20540;-86
2023/09/30 06:45:09;;;;;;;4.93;2.13;;;;;;;;;;5035043;28;20091;-87
2023/09/30 06:47:38;;;;;;;4.47;1.77;;;;;;;;;;5033792;28;20415;-87
2023/09/30 06:50:09;;;;;;;8.30;1.75;;;;;;;;;;5033787;28;20046;-86
2023/09/30 06:52:36;;;;;;;3.88;1.88;;;;;;;;;;5033835;28;20049;-86
2023/09/30 06:55:04;;;;;;;3.65;1.90;;;;;;;;;;5033792;28;20057;-86
2023/09/30 06:57:37;;;;;;;7.40;2.22;;;;;;;;;;5035445;28;20160;-86
2023/09/30 07:00:09;;;;;;;5.22;2.15;;;;;;;;;;5035354;28;20113;-86
2023/09/30 07:02:36;;;;;;;6.50;2.47;;;;;;;;;;5033651;28;20045;-86
2023/09/30 07:05:08;;;;;;;8.20;2.90;;;;;;;;;;5034393;28;20120;-86
2023/09/30 07:07:35;;;;;;;10.45;3.10;;;;;;;;;;5037766;28;20045;-86
2023/09/30 07:10:05;;;;;;;9.02;2.88;;;;;;;;;;5035190;28;20056;-86
2023/09/30 07:12:35;;;;;;;5.97;2.72;;;;;;;;;;5033804;28;20515;-86
2023/09/30 07:15:04;;;;;;;10.38;2.58;;;;;;;;;;5033577;28;20049;-86
2023/09/30 07:17:31;;;;;;;5.13;2.75;;;;;;;;;;5034030;28;20499;-87
2023/09/30 07:19:59;;;;;;;4.28;2.15;;;;;;;;;;5034579;28;20111;-86
2023/09/30 07:22:26;;;;;;;6.57;2.60;;;;;;;;;;5034317;28;20045;-87
2023/09/30 07:25:14;;;;;;;7.57;2.58;;;;;;;;;;5035421;28;20045;-86
2023/09/30 07:27:42;;;;;;;7.43;2.70;;;;;;;;;;5034907;28;20045;-86
2023/09/30 07:30:11;;;;;;;8.50;2.53;;;;;;;;;;5034528;28;20094;-87
2023/09/30 07:32:39;;;;;;;6.47;2.88;;;;;;;;;;5035567;28;20053;-87
2023/09/30 07:35:07;;;;;;;6.07;2.55;;;;;;;;;;5033499;28;20053;-87
2023/09/30 07:37:35;;;;;;;4.40;2.30;;;;;;;;;;5032866;28;20076;-87
2023/09/30 07:40:03;;;;;;;8.30;2.67;;;;;;;;;;5035011;28;20108;-86
2023/09/30 07:42:30;;;;;;;8.40;2.55;;;;;;;;;;5033057;28;20059;-87
2023/09/30 07:44:57;;;;;;;8.98;2.40;;;;;;;;;;5033088;28;20064;-87
2023/09/30 07:47:25;;;;;;;6.32;2.53;;;;;;;;;;5034581;28;20045;-87
2023/09/30 07:49:52;;;;;;;5.85;2.63;;;;;;;;;;5035151;28;20045;-86
2023/09/30 07:52:20;;;;;;;9.68;2.75;;;;;;;;;;5037214;28;20084;-87
2023/09/30 07:54:47;;;;;;;6.60;2.30;;;;;;;;;;5033949;28;20474;-87
2023/09/30 07:57:14;;;;;;;6.57;2.78;;;;;;;;;;5026118;28;20617;-86
2023/09/30 07:59:42;;;;;;;7.55;2.30;;;;;;;;;;5034578;28;20060;-86
2023/09/30 08:02:09;;;;;;;4.43;2.33;;;;;;;;;;5033324;28;20049;-86
2023/09/30 08:04:36;;;;;;;4.13;2.20;;;;;;;;;;5033337;28;20049;-86
2023/09/30 08:07:04;;;;;;;5.57;1.85;;;;;;;;;;5033913;28;20084;-86
2023/09/30 08:09:31;;;;;;;10.07;2.35;;;;;;;;;;5033040;28;20096;-86
2023/09/30 08:11:59;;;;;;;5.82;2.25;;;;;;;;;;5033706;28;20057;-87
2023/09/30 08:14:26;;;;;;;8.20;2.58;;;;;;;;;;5037918;28;20054;-85
2023/09/30 08:16:53;;;;;;;5.45;2.05;;;;;;;;;;5052059;28;20033;-86
2023/09/30 08:19:21;;;;;;;9.43;2.50;;;;;;;;;;5044038;28;20051;-86
2023/09/30 08:21:48;;;;;;;4.93;2.03;;;;;;;;;;5032461;28;20494;-86
2023/09/30 08:24:17;;;;;;;7.63;1.98;;;;;;;;;;5033757;28;20468;-87
2023/09/30 08:26:45;;;;;;;5.20;2.05;;;;;;;;;;5033980;28;20077;-87
2023/09/30 08:29:12;;;;;;;5.47;2.25;;;;;;;;;;5035077;28;20045;-88
2023/09/30 08:31:39;;;;;;;5.88;2.25;;;;;;;;;;5037768;28;20115;-87
2023/09/30 08:34:07;;;;;;;6.43;2.20;;;;;;;;;;5036317;28;20088;-87
2023/09/30 08:36:34;;;;;;;8.10;2.45;;;;;;;;;;5036718;28;20041;-87
2023/09/30 08:39:01;;;;;;;7.18;2.15;;;;;;;;;;5036756;28;20055;-87
2023/09/30 08:41:32;;;;;;;6.57;2.40;;;;;;;;;;5037512;28;20049;-87
2023/09/30 08:44:03;;;;;;;10.55;2.50;;;;;;;;;;5035689;28;20061;-87
2023/09/30 08:46:32;;;;;;;9.63;2.78;;;;;;;;;;5036766;28;20096;-87
2023/09/30 08:49:01;;;;;;;6.28;2.15;;;;;;;;;;5037824;28;20049;-85
2023/09/30 08:51:29;;;;;;;6.15;2.03;;;;;;;;;;5038190;28;20052;-87
2023/09/30 08:53:59;;;;;;;8.88;2.83;;;;;;;;;;5038428;28;20049;-88
2023/09/30 08:56:32;;;;;;;6.07;2.28;;;;;;;;;;5042945;28;20096;-86
2023/09/30 08:58:59;;;;;;;;;;;;;;;;;;5042070;28;20049;-88
2023/09/30 09:01:28;;;;;;;9.82;2.78;;;;;;;;;;5025538;28;19922;-87
2023/09/30 09:03:56;;;;;;;7.28;2.65;;;;;;;;;;5036303;28;20056;-88
2023/09/30 09:06:25;;;;;;;7.70;2.22;;;;;;;;;;5036621;28;20473;-87
2023/09/30 09:08:53;;;;;;;5.28;2.20;;;;;;;;;;5032627;28;20042;-87
2023/09/30 09:11:21;;;;;;;7.10;2.60;;;;;;;;;;5026122;28;20495;-86
2023/09/30 09:13:50;;;;;;;8.05;2.47;;;;;;;;;;5036105;28;20052;-88
2023/09/30 09:16:18;;;;;;;13.35;2.63;;;;;;;;;;5033298;28;20062;-87
2023/09/30 09:18:47;;;;;;;8.43;2.33;;;;;;;;;;5025971;28;20057;-87
2023/09/30 09:21:27;;;;;;;5.35;2.60;;;;;;;;;;5036379;28;20061;-87
2023/09/30 09:23:54;;;;;;;;;;;;;;;;;;5030321;28;20399;-88
2023/09/30 09:26:26;;;;;;;5.78;2.15;;;;;;;;;;5035753;28;19921;-88
2023/09/30 09:29:01;;;;;;;6.22;2.25;;;;;;;;;;5034762;28;20065;-86
2023/09/30 09:31:29;;;;;;;6.55;2.10;;;;;;;;;;5035918;28;20107;-88
2023/09/30 09:33:57;;;;;;;6.97;2.50;;;;;;;;;;5036987;28;20046;-88
2023/09/30 09:36:44;;;;;;;6.22;2.40;;;;;;;;;;5036591;28;20060;-87
2023/09/30 09:39:32;;;;;;;4.65;1.90;;;;;;;;;;5034722;28;20149;-87
2023/09/30 09:42:01;;;;;;;7.70;2.35;;;;;;;;;;5025828;28;20132;-85
2023/09/30 09:44:29;;;;;;;5.63;2.10;;;;;;;;;;5036532;28;20439;-85
2023/09/30 09:46:57;;;;;;;4.57;1.98;;;;;;;;;;5036255;28;20042;-86
2023/09/30 09:49:25;;;;;;;4.88;2.30;;;;;;;;;;5037052;28;20104;-85
2023/09/30 09:51:53;;;;;;;5.72;2.30;;;;;;;;;;5036998;28;20120;-86
2023/09/30 09:54:21;;;;;;;6.47;2.40;;;;;;;;;;5036544;28;20050;-85
2023/09/30 09:56:50;;;;;;;6.65;2.10;;;;;;;;;;5036075;28;20084;-88
2023/09/30 09:59:17;;;;;;;7.35;2.13;;;;;;;;;;5035915;28;20103;-85
2023/09/30 10:01:45;;;;;;;5.30;2.38;;;;;;;;;;5036084;28;20057;-83
2023/09/30 10:04:19;;;;;;;5.28;2.30;;;;;;;;;;5037809;28;20049;-87
2023/09/30 10:06:51;;;;;;;6.78;2.00;;;;;;;;;;5037729;28;20049;-86
2023/09/30 10:09:20;;;;;;;4.75;1.92;;;;;;;;;;5036644;28;20049;-86
2023/09/30 10:12:08;;;;;;;5.22;2.08;;;;;;;;;;5036313;28;20056;-85
2023/09/30 10:14:36;;;;;;;5.00;2.05;;;;;;;;;;5036863;28;20096;-88
2023/09/30 10:17:22;;;;;;;5.93;2.00;;;;;;;;;;5035883;28;20053;-87
2023/09/30 10:20:10;;;;;;;7.75;2.30;;;;;;;;;;5035362;28;20133;-88
2023/09/30 10:22:40;;;;;;;7.72;2.50;;;;;;;;;;5035485;28;20065;-87
2023/09/30 10:25:33;;;;;;;6.55;1.75;;;;;;;;;;5035866;28;20055;-87
2023/09/30 10:31:30;;;;;;;5.85;1.77;;;;;;;;;;5037669;28;20045;-87
2023/09/30 10:34:01;;;;;;;4.82;2.13;;;;;;;;;;5036287;28;20049;-87
2023/09/30 10:36:37;;;;;;;3.88;2.05;;;;;;;;;;5036957;28;20100;-87
2023/09/30 10:39:12;;;;;;;5.80;1.90;;;;;;;;;;5034600;28;20137;-87
2023/09/30 10:42:03;;;;;;;3.92;1.95;;;;;;;;;;5034279;28;20058;-87
2023/09/30 10:44:31;;;;;;;3.67;1.73;;;;;;;;;;5035377;28;20053;-88
2023/09/30 10:47:00;;;;;;;2.60;1.50;;;;;;;;;;5033967;28;20080;-88
2023/09/30 10:49:27;;;;;;;7.90;2.03;;;;;;;;;;5034650;28;20053;-87
2023/09/30 10:51:59;;;;;;;4.32;2.00;;;;;;;;;;5034064;28;20136;-87
2023/09/30 10:57:52;;;;;;;4.65;1.90;;;;;;;;;;5035362;28;20072;-87
2023/09/30 11:00:19;;;;;;;5.10;2.00;;;;;;;;;;5036312;28;20446;-87
2023/09/30 11:02:51;;;;;;;4.18;2.10;;;;;;;;;;5048143;28;20033;-87
2023/09/30 11:05:30;;;;;;;5.22;2.05;;;;;;;;;;5029080;28;20045;-87
2023/09/30 11:08:17;;;;;;;4.30;1.83;;;;;;;;;;5019793;28;20053;-87
2023/09/30 11:11:03;;;;;;;4.40;2.03;;;;;;;;;;5033848;28;20045;-88
2023/09/30 11:13:38;;;;;;;6.00;1.80;;;;;;;;;;5034160;28;20049;-86
2023/09/30 11:16:06;;;;;;;3.85;2.10;;;;;;;;;;5034656;28;20136;-86
2023/09/30 11:18:33;;;;;;;3.97;2.03;;;;;;;;;;5034009;28;20506;-88
2023/09/30 11:21:05;;;;;;;3.20;1.90;;;;;;;;;;5030466;28;20551;-87
2023/09/30 11:23:45;;;;;;;3.72;2.03;;;;;;;;;;5014223;28;20042;-86
2023/09/30 11:26:13;;;;;;;5.00;1.83;;;;;;;;;;5014195;28;20104;-86
2023/09/30 11:29:05;;;;;;;3.70;1.70;;;;;;;;;;5014625;28;20042;-87
2023/09/30 11:31:33;;;;;;;3.85;1.70;;;;;;;;;;5014424;28;20045;-87
2023/09/30 11:34:07;;;;;;;8.43;2.22;;;;;;;;;;5016744;28;20053;-89
2023/09/30 11:36:35;;;;;;;4.10;2.13;;;;;;;;;;5033182;28;20096;-88
2023/09/30 11:39:03;;;;;;;5.20;1.70;;;;;;;;;;5031207;28;20059;-86
2023/09/30 11:41:38;;;;;;;3.38;1.70;;;;;;;;;;5029084;28;20535;-89
2023/09/30 11:44:07;;;;;;;5.05;1.70;;;;;;;;;;5032539;28;20049;-85
2023/09/30 11:47:04;;;;;;;3.10;1.60;;;;;;;;;;5032623;28;20135;-87
2023/09/30 11:49:44;;;;;;;5.10;1.70;;;;;;;;;;5040275;28;20454;-87
2023/09/30 11:52:16;;;;;;;4.35;1.75;;;;;;;;;;5047921;28;20064;-87
2023/09/30 11:54:44;;;;;;;6.13;2.05;;;;;;;;;;5050543;28;20057;-84
2023/09/30 11:57:19;;;;;;;2.80;1.52;;;;;;;;;;5050715;28;20049;-87
2023/09/30 11:59:46;;;;;;;5.28;1.90;;;;;;;;;;5050543;28;20449;-88
2023/09/30 12:02:14;;;;;;;5.53;1.70;;;;;;;;;;5044305;28;20141;-87
2023/09/30 12:04:49;;;;;;;4.45;1.70;;;;;;;;;;5049800;28;20132;-89
2023/09/30 12:07:17;;;;;;;2.92;1.35;;;;;;;;;;5051421;28;20049;-88
2023/09/30 12:09:59;;;;;;;6.70;1.85;;;;;;;;;;5033738;28;20050;-89
2023/09/30 12:12:26;;;;;;;3.67;1.80;;;;;;;;;;5029914;28;20050;-84
2023/09/30 12:14:54;;;;;;;3.53;1.98;;;;;;;;;;5013665;28;20054;-89
2023/09/30 12:17:22;;;;;;;8.45;3.08;;;;;;;;;;5013801;28;20100;-87
2023/09/30 12:19:59;;;;;;;4.43;1.90;;;;;;;;;;5015738;28;20092;-87
2023/09/30 12:22:28;;;;;;;4.43;1.90;;;;;;;;;;5015499;28;20115;-87
2023/09/30 12:24:55;;;;;;;3.88;1.80;;;;;;;;;;5014637;28;20056;-87
2023/09/30 12:27:22;;;;;;;4.88;1.70;;;;;;;;;;5014670;28;20118;-83
2023/09/30 12:29:50;;;;;;;4.10;2.10;;;;;;;;;;5026968;28;20077;-88
2023/09/30 12:32:18;;;;;;;7.18;1.83;;;;;;;;;;5032808;28;20057;-89
2023/09/30 12:34:56;;;;;;;6.47;2.53;;;;;;;;;;5032623;28;20056;-88
2023/09/30 12:37:24;;;;;;;3.50;1.70;;;;;;;;;;5033391;28;20465;-87
2023/09/30 12:40:00;;;;;;;3.97;1.75;;;;;;;;;;5034257;28;20049;-87
2023/09/30 12:42:29;;;;;;;2.35;1.63;;;;;;;;;;5032951;28;20049;-87
2023/09/30 12:44:56;;;;;;;4.65;1.80;;;;;;;;;;5032927;28;20100;-88
2023/09/30 12:47:23;;;;;;;6.15;1.80;;;;;;;;;;5033763;28;20061;-85
2023/09/30 12:49:54;;;;;;;3.80;1.48;;;;;;;;;;5034164;28;20045;-87
2023/09/30 12:52:22;;;;;;;4.75;1.77;;;;;;;;;;5033057;28;20046;-86
2023/09/30 12:54:49;;;;;;;3.45;1.50;;;;;;;;;;5033140;28;20056;-89
2023/09/30 12:57:19;;;;;;;1.50;1.40;;;;;;;;;;5033338;28;20053;-88
2023/09/30 12:59:49;;;;;;;4.95;1.65;;;;;;;;;;5033910;28;20053;-88
2023/09/30 13:05:16;;;;;;;4.72;1.55;;;;;;;;;;5033868;28;20058;-87
2023/09/30 13:07:44;;;;;;;2.45;1.30;;;;;;;;;;5033897;28;20057;-88
2023/09/30 13:10:12;;;;;;;3.10;1.40;;;;;;;;;;5034037;28;20069;-88
2023/09/30 13:12:40;;;;;;;1.58;1.17;;;;;;;;;;5032693;28;20436;-88
2023/09/30 13:15:08;;;;;;;3.97;1.40;;;;;;;;;;5033189;28;20099;-87
2023/09/30 13:17:37;;;;;;;3.58;1.40;;;;;;;;;;5036731;28;20495;-88
2023/09/30 13:20:05;;;;;;;2.88;1.30;;;;;;;;;;5038594;28;20053;-86
2023/09/30 13:22:32;;;;;;;1.60;1.13;;;;;;;;;;5036668;28;20056;-87
2023/09/30 13:25:02;;;;;;;2.42;1.02;;;;;;;;;;5033528;28;20119;-88
2023/09/30 13:27:29;;;;;;;3.45;1.27;;;;;;;;;;5036140;28;20045;-87
2023/09/30 13:29:58;;;;;;;4.80;1.45;;;;;;;;;;5038517;28;20056;-87
2023/09/30 13:32:28;;;;;;;4.20;1.30;;;;;;;;;;5033073;28;20061;-87
2023/09/30 13:34:56;;;;;;;1.73;1.02;;;;;;;;;;5043182;28;20057;-87
2023/09/30 13:37:29;;;;;;;2.90;1.52;;;;;;;;;;5037748;28;20408;-86
2023/09/30 13:39:57;;;;;;;3.33;1.30;;;;;;;;;;5036001;28;20128;-87
2023/09/30 13:42:24;;;;;;;2.88;1.30;;;;;;;;;;5036147;28;20053;-88
2023/09/30 13:44:51;;;;;;;5.45;1.27;;;;;;;;;;5035422;28;20458;-87
2023/09/30 13:47:19;;;;;;;3.83;1.45;;;;;;;;;;5046289;28;20069;-87
2023/09/30 13:49:46;;;;;;;3.42;1.35;;;;;;;;;;5069318;28;20037;-85
2023/09/30 13:52:13;;;;;;;3.92;1.60;;;;;;;;;;5028471;28;20053;-87
2023/09/30 13:54:41;;;;;;;3.72;1.23;;;;;;;;;;5036273;28;20054;-87
2023/09/30 13:57:08;;;;;;;3.70;1.48;;;;;;;;;;5036425;28;20065;-86
2023/09/30 13:59:36;;;;;;;5.78;1.85;;;;;;;;;;5036616;28;20049;-86
2023/09/30 14:02:03;;;;;;;3.25;1.35;;;;;;;;;;5034738;28;20065;-86
2023/09/30 14:04:31;;;;;;;6.15;1.70;;;;;;;;;;5035299;28;20049;-87
2023/09/30 14:07:00;;;;;;;6.00;1.60;;;;;;;;;;5034434;28;20046;-86
2023/09/30 14:09:27;;;;;;;5.32;1.73;;;;;;;;;;5036054;28;20045;-88
2023/09/30 14:12:04;;;;;;;6.53;1.58;;;;;;;;;;5035667;28;20072;-86
2023/09/30 14:14:34;;;;;;;4.70;1.80;;;;;;;;;;5034634;28;20477;-87
2023/09/30 14:17:07;;;;;;;4.63;1.33;;;;;;;;;;5034949;28;20464;-87
2023/09/30 14:19:35;;;;;;;2.88;1.38;;;;;;;;;;5033484;28;20056;-88
2023/09/30 14:22:04;;;;;;;4.57;1.58;;;;;;;;;;5035281;28;20057;-87
2023/09/30 14:24:35;;;;;;;4.05;1.35;;;;;;;;;;5033611;28;20510;-87
2023/09/30 14:27:03;;;;;;;3.33;1.38;;;;;;;;;;5033012;28;20136;-88
2023/09/30 14:29:33;;;;;;;3.78;1.23;;;;;;;;;;5033283;28;20052;-88
2023/09/30 14:32:02;;;;;;;3.53;1.50;;;;;;;;;;5033643;28;20058;-88
2023/09/30 14:34:29;;;;;;;5.65;1.58;;;;;;;;;;5033643;28;20060;-88
2023/09/30 14:36:56;;;;;;;3.15;1.45;;;;;;;;;;5033278;28;20072;-87
2023/09/30 14:39:24;;;;;;;2.65;1.30;;;;;;;;;;5033766;28;20502;-87
2023/09/30 14:41:51;;;;;;;2.40;1.40;;;;;;;;;;5033627;28;20053;-87
2023/09/30 14:44:23;;;;;;;3.85;1.33;;;;;;;;;;5033491;28;20798;-87
2023/09/30 14:46:50;;;;;;;3.45;1.33;;;;;;;;;;5033436;28;20045;-87
2023/09/30 14:49:17;;;;;;;2.40;1.20;;;;;;;;;;5033542;28;20095;-87
2023/09/30 14:51:48;;;;;;;3.40;1.17;;;;;;;;;;5033673;28;20061;-87
2023/09/30 14:54:16;;;;;;;4.63;1.40;;;;;;;;;;5017559;28;20053;-88
2023/09/30 14:56:43;;;;;;;3.85;1.58;;;;;;;;;;5032966;28;20103;-87
2023/09/30 14:59:11;;;;;;;3.03;1.23;;;;;;;;;;5033171;28;20136;-88
2023/09/30 15:01:39;;;;;;;2.47;1.30;;;;;;;;;;5033174;28;20053;-87
2023/09/30 15:04:09;;;;;;;5.60;2.03;;;;;;;;;;5025768;28;20041;-87
2023/09/30 15:06:37;;;;;;;5.07;1.55;;;;;;;;;;5032895;28;20041;-88